createdAt,value
2018-11-21T00:00:32.411Z,29.93
2018-11-21T00:03:01.436Z,29.57
2018-11-21T00:05:32.105Z,28.03
2018-11-21T00:08:01.181Z,28.70
2018-11-21T00:10:29.945Z,28.87
2018-11-21T00:12:59.268Z,26.80
2018-11-21T00:15:28.070Z,28.20
2018-11-21T00:17:57.645Z,28.23
2018-11-21T00:20:27.080Z,27.93
2018-11-21T00:22:56.547Z,27.27
2018-11-21T00:25:25.305Z,27.03
2018-11-21T00:27:54.205Z,27.17
2018-11-21T00:30:22.979Z,26.53
2018-11-21T00:32:51.468Z,28.17
2018-11-21T00:35:19.951Z,27.00
2018-11-21T00:37:49.015Z,27.57
2018-11-21T00:40:17.859Z,27.00
2018-11-21T00:42:47.141Z,26.83
2018-11-21T00:45:16.415Z,26.63
2018-11-21T00:47:44.895Z,27.27
2018-11-21T00:50:14.281Z,28.37
2018-11-21T00:52:44.131Z,26.90
2018-11-21T00:55:13.017Z,26.67
2018-11-21T00:57:41.532Z,25.80
2018-11-21T01:00:11.661Z,26.43
2018-11-21T01:02:40.500Z,25.20
2018-11-21T01:05:08.963Z,26.00
2018-11-21T01:07:38.242Z,25.20
2018-11-21T01:10:07.146Z,26.17
2018-11-21T01:12:35.695Z,24.27
2018-11-21T01:15:04.977Z,26.23
2018-11-21T01:17:33.769Z,26.47
2018-11-21T01:20:02.317Z,27.03
2018-11-21T01:22:31.910Z,25.83
2018-11-21T01:25:00.722Z,25.17
2018-11-21T01:27:29.550Z,25.90
2018-11-21T01:29:58.323Z,25.77
2018-11-21T01:32:28.189Z,24.47
2018-11-21T01:34:57.514Z,26.20
2018-11-21T01:37:26.025Z,26.87
2018-11-21T01:39:54.947Z,25.87
2018-11-21T01:42:23.462Z,24.83
2018-11-21T01:44:52.033Z,26.73
2018-11-21T01:47:21.189Z,26.40
2018-11-21T01:49:49.692Z,24.53
2018-11-21T01:52:18.580Z,25.83
2018-11-21T01:54:47.479Z,25.13
2018-11-21T01:57:16.359Z,23.73
2018-11-21T01:59:47.805Z,26.03
2018-11-21T02:02:16.861Z,26.67
2018-11-21T02:04:45.667Z,25.53
2018-11-21T02:07:14.187Z,25.17
2018-11-21T02:09:43.025Z,26.00
2018-11-21T02:12:11.570Z,26.07
2018-11-21T02:14:41.148Z,26.17
2018-11-21T02:17:11.887Z,24.10
2018-11-21T02:19:40.751Z,24.80
2018-11-21T02:22:09.874Z,25.00
2018-11-21T02:24:38.884Z,25.77
2018-11-21T02:27:07.471Z,24.30
2018-11-21T02:29:35.962Z,25.10
2018-11-21T02:32:05.673Z,25.00
2018-11-21T02:34:34.477Z,24.37
2018-11-21T02:37:03.776Z,25.07
2018-11-21T02:39:33.021Z,25.23
2018-11-21T02:42:01.573Z,24.57
2018-11-21T02:44:30.463Z,25.03
2018-11-21T02:46:59.473Z,25.07
2018-11-21T02:49:28.641Z,24.50
2018-11-21T02:51:57.177Z,25.33
2018-11-21T02:54:26.143Z,24.60
2018-11-21T02:57:20.096Z,23.27
2018-11-21T02:59:49.526Z,22.90
2018-11-21T03:02:18.495Z,23.77
2018-11-21T03:04:47.593Z,24.07
2018-11-21T03:07:16.522Z,23.33
2018-11-21T03:09:45.050Z,21.57
2018-11-21T03:12:13.993Z,22.90
2018-11-21T03:14:42.884Z,22.73
2018-11-21T03:17:12.269Z,22.43
2018-11-21T03:19:41.125Z,21.40
2018-11-21T03:22:10.598Z,22.93
2018-11-21T03:24:39.491Z,22.43
2018-11-21T03:27:09.970Z,22.60
2018-11-21T03:29:39.846Z,22.30
2018-11-21T03:32:08.595Z,22.00
2018-11-21T03:34:37.456Z,21.87
2018-11-21T03:37:06.044Z,22.60
2018-11-21T03:39:34.963Z,22.43
2018-11-21T03:42:03.430Z,20.33
2018-11-21T03:44:32.833Z,22.87
2018-11-21T03:47:02.094Z,20.53
2018-11-21T03:49:31.095Z,20.73
2018-11-21T03:51:59.932Z,21.97
2018-11-21T03:54:28.422Z,19.97
2018-11-21T03:56:56.878Z,21.07
2018-11-21T03:59:25.451Z,21.03
2018-11-21T04:01:54.294Z,21.57
2018-11-21T04:04:23.137Z,20.00
2018-11-21T04:06:51.987Z,21.53
2018-11-21T04:09:21.169Z,20.67
2018-11-21T04:11:49.619Z,21.07
2018-11-21T04:14:19.045Z,20.67
2018-11-21T04:16:47.893Z,21.93
2018-11-21T04:19:17.131Z,21.70
2018-11-21T04:21:46.629Z,23.13
2018-11-21T04:24:16.160Z,21.07
2018-11-21T04:26:44.680Z,21.47
2018-11-21T04:29:15.286Z,21.27
2018-11-21T04:31:43.797Z,20.13
2018-11-21T04:34:13.110Z,21.83
2018-11-21T04:36:41.633Z,20.90
2018-11-21T04:39:11.081Z,21.40
2018-11-21T04:41:40.239Z,19.47
2018-11-21T04:44:09.193Z,18.83
2018-11-21T04:46:38.437Z,19.83
2018-11-21T04:49:07.694Z,20.80
2018-11-21T04:51:36.498Z,20.20
2018-11-21T04:54:06.223Z,17.60
2018-11-21T04:56:35.547Z,18.53
2018-11-21T04:59:04.014Z,17.83
2018-11-21T05:01:32.515Z,18.20
2018-11-21T05:04:01.059Z,17.40
2018-11-21T05:06:29.563Z,17.83
2018-11-21T05:08:58.650Z,19.03
2018-11-21T05:11:27.545Z,17.07
2018-11-21T05:13:58.868Z,17.93
2018-11-21T05:16:27.868Z,17.50
2018-11-21T05:18:56.400Z,16.33
2018-11-21T05:21:25.307Z,17.50
2018-11-21T05:23:53.904Z,16.23
2018-11-21T05:26:22.817Z,16.10
2018-11-21T05:28:51.817Z,16.37
2018-11-21T05:31:20.415Z,16.57
2018-11-21T05:33:49.919Z,16.33
2018-11-21T05:36:18.954Z,17.00
2018-11-21T05:38:47.471Z,17.37
2018-11-21T05:41:15.984Z,17.00
2018-11-21T05:43:45.254Z,16.13
2018-11-21T05:46:14.796Z,15.57
2018-11-21T05:48:43.343Z,16.33
2018-11-21T05:51:12.474Z,15.33
2018-11-21T05:53:40.929Z,15.70
2018-11-21T05:56:09.762Z,14.40
2018-11-21T05:58:38.695Z,15.10
2018-11-21T06:01:09.184Z,15.50
2018-11-21T06:03:37.747Z,14.77
2018-11-21T06:06:09.847Z,13.77
2018-11-21T06:08:35.095Z,13.37
2018-11-21T06:11:03.566Z,13.80
2018-11-21T06:13:32.843Z,13.20
2018-11-21T06:16:01.714Z,13.47
2018-11-21T06:18:31.329Z,14.07
2018-11-21T06:20:59.790Z,14.33
2018-11-21T06:23:29.443Z,13.83
2018-11-21T06:25:58.022Z,13.83
2018-11-21T06:28:26.917Z,14.80
2018-11-21T06:30:55.742Z,14.67
2018-11-21T06:33:24.983Z,13.43
2018-11-21T06:35:53.851Z,13.40
2018-11-21T06:38:23.298Z,13.30
2018-11-21T06:40:53.020Z,14.23
2018-11-21T06:43:21.971Z,12.97
2018-11-21T06:45:50.825Z,13.77
2018-11-21T06:48:20.004Z,13.37
2018-11-21T06:50:48.454Z,14.20
2018-11-21T06:53:16.904Z,13.00
2018-11-21T06:55:45.597Z,12.80
2018-11-21T06:58:17.684Z,14.13
2018-11-21T07:00:46.943Z,14.07
2018-11-21T07:03:15.479Z,13.60
2018-11-21T07:05:44.576Z,13.50
2018-11-21T07:08:13.070Z,13.13
2018-11-21T07:10:41.852Z,13.97
2018-11-21T07:13:11.214Z,12.90
2018-11-21T07:15:40.065Z,12.97
2018-11-21T07:18:08.939Z,13.20
2018-11-21T07:20:37.393Z,13.67
2018-11-21T07:23:07.761Z,13.93
2018-11-21T07:25:37.251Z,13.40
2018-11-21T07:28:12.701Z,14.40
2018-11-21T07:30:35.772Z,14.30
2018-11-21T07:33:05.168Z,14.63
2018-11-21T07:35:34.341Z,15.03
2018-11-21T07:38:03.448Z,15.53
2018-11-21T07:40:31.914Z,14.33
2018-11-21T07:43:00.722Z,15.80
2018-11-21T07:45:29.679Z,15.83
2018-11-21T07:47:58.582Z,15.97
2018-11-21T07:50:27.745Z,16.20
2018-11-21T07:52:56.935Z,16.03
2018-11-21T07:55:26.061Z,15.33
2018-11-21T07:57:56.308Z,17.77
2018-11-21T08:01:15.593Z,15.67
2018-11-21T08:04:04.093Z,17.93
2018-11-21T08:06:42.276Z,15.67
2018-11-21T08:09:31.176Z,18.10
2018-11-21T08:12:18.978Z,18.67
2018-11-21T08:15:19.221Z,17.83
2018-11-21T08:17:57.426Z,17.53
2018-11-21T08:20:44.328Z,18.93
2018-11-21T08:23:30.341Z,18.43
2018-11-21T08:26:18.367Z,18.43
2018-11-21T08:28:48.824Z,18.83
2018-11-21T08:31:17.796Z,20.03
2018-11-21T08:33:47.915Z,20.27
2018-11-21T08:36:16.763Z,21.67
2018-11-21T08:38:45.274Z,20.57
2018-11-21T08:41:14.155Z,19.67
2018-11-21T08:43:43.038Z,20.90
2018-11-21T08:46:12.004Z,20.20
2018-11-21T08:48:41.038Z,20.43
2018-11-21T08:51:10.246Z,21.23
2018-11-21T08:53:39.134Z,20.33
2018-11-21T08:56:08.316Z,19.97
2018-11-21T08:58:36.880Z,21.60
2018-11-21T09:01:05.679Z,20.27
2018-11-21T09:03:34.126Z,18.73
2018-11-21T09:06:04.492Z,19.47
2018-11-21T09:08:32.085Z,18.47
2018-11-21T09:11:00.867Z,21.73
2018-11-21T09:13:31.354Z,21.80
2018-11-21T09:16:00.732Z,20.73
2018-11-21T09:18:29.561Z,22.03
2018-11-21T09:20:58.432Z,22.17
2018-11-21T09:23:28.153Z,22.23
2018-11-21T09:25:57.483Z,20.63
2018-11-21T09:28:28.090Z,21.03
2018-11-21T09:30:56.829Z,20.50
2018-11-21T09:33:27.940Z,22.00
2018-11-21T09:35:57.490Z,22.00
2018-11-21T09:38:26.063Z,20.87
2018-11-21T09:40:55.035Z,23.97
2018-11-21T09:43:23.910Z,20.33
2018-11-21T09:45:54.732Z,21.87
2018-11-21T09:48:23.567Z,20.90
2018-11-21T09:50:52.115Z,21.23
2018-11-21T09:53:20.680Z,18.77
2018-11-21T09:55:49.752Z,20.77
2018-11-21T09:58:18.702Z,19.00
2018-11-21T10:01:23.943Z,19.73
2018-11-21T10:03:52.787Z,18.07
2018-11-21T10:06:23.709Z,17.77
2018-11-21T10:09:00.016Z,19.17
2018-11-21T10:11:30.521Z,19.17
2018-11-21T10:13:59.108Z,19.87
2018-11-21T10:16:27.569Z,20.53
2018-11-21T10:18:57.543Z,19.07
2018-11-21T10:21:27.480Z,19.77
2018-11-21T10:23:55.939Z,18.47
2018-11-21T10:26:24.896Z,20.50
2018-11-21T10:28:54.290Z,19.60
2018-11-21T10:31:23.213Z,17.97
2018-11-21T10:33:52.075Z,18.13
2018-11-21T10:36:21.323Z,18.20
2018-11-21T10:38:50.768Z,16.83
2018-11-21T10:41:20.194Z,18.10
2018-11-21T10:43:49.388Z,16.90
2018-11-21T10:46:18.212Z,17.20
2018-11-21T10:48:46.715Z,16.97
2018-11-21T10:51:15.900Z,18.87
2018-11-21T10:53:44.696Z,17.43
2018-11-21T10:56:13.948Z,17.60
2018-11-21T10:58:43.159Z,18.80
2018-11-21T11:01:33.787Z,19.23
2018-11-21T11:04:21.362Z,17.90
2018-11-21T11:07:18.048Z,18.13
2018-11-21T11:10:17.937Z,18.93
2018-11-21T11:13:12.258Z,21.97
2018-11-21T11:15:54.691Z,20.33
2018-11-21T11:18:58.043Z,18.67
2018-11-21T11:21:44.377Z,18.97
2018-11-21T11:24:32.273Z,18.93
2018-11-21T11:27:19.869Z,18.73
2018-11-21T11:30:10.633Z,17.97
2018-11-21T11:33:07.310Z,19.47
2018-11-21T11:36:07.286Z,18.70
2018-11-21T11:38:53.741Z,17.60
2018-11-21T11:41:40.305Z,16.73
2018-11-21T11:44:26.518Z,17.37
2018-11-21T11:47:13.194Z,18.13
2018-11-21T11:49:55.790Z,17.00
2018-11-21T11:52:55.633Z,17.47
2018-11-21T11:55:46.457Z,18.43
2018-11-21T11:58:24.262Z,19.37
2018-11-21T12:01:11.635Z,18.20
2018-11-21T12:04:08.990Z,18.87
2018-11-21T12:06:55.379Z,18.07
2018-11-21T12:09:37.695Z,18.80
2018-11-21T12:12:43.556Z,18.57
2018-11-21T12:15:43.589Z,18.13
2018-11-21T12:18:40.593Z,17.67
2018-11-21T12:21:43.653Z,17.70
2018-11-21T12:24:43.756Z,20.43
2018-11-21T12:27:30.312Z,17.03
2018-11-21T12:30:33.987Z,16.47
2018-11-21T12:33:27.921Z,16.23
2018-11-21T12:36:18.821Z,18.17
2018-11-21T12:39:05.653Z,19.00
2018-11-21T12:41:53.319Z,21.40
2018-11-21T12:44:46.949Z,15.77
2018-11-21T12:47:33.153Z,15.50
2018-11-21T12:50:19.768Z,17.53
2018-11-21T12:53:06.752Z,15.97
2018-11-21T12:55:51.620Z,15.33
2018-11-21T12:58:34.836Z,14.77
2018-11-21T13:01:21.556Z,15.00
2018-11-21T13:04:08.822Z,14.53
2018-11-21T13:06:49.526Z,16.73
2018-11-21T13:09:36.238Z,14.70
2018-11-21T13:12:26.978Z,14.37
2018-11-21T13:15:13.860Z,13.43
2018-11-21T13:18:13.580Z,15.20
2018-11-21T13:21:21.740Z,15.00
2018-11-21T13:24:06.547Z,15.03
2018-11-21T13:27:09.333Z,15.10
2018-11-21T13:30:09.659Z,14.97
2018-11-21T13:32:55.966Z,14.77
2018-11-21T13:35:41.119Z,15.30
2018-11-21T13:38:28.799Z,16.37
2018-11-21T13:41:15.445Z,16.00
2018-11-21T13:44:06.973Z,17.10
2018-11-21T13:46:56.275Z,16.63
2018-11-21T13:49:35.527Z,18.50
2018-11-21T13:52:21.767Z,17.90
2018-11-21T13:54:51.076Z,19.63
2018-11-21T13:57:21.019Z,19.10
2018-11-21T13:59:49.512Z,19.93
2018-11-21T14:02:18.328Z,20.43
2018-11-21T14:04:47.320Z,22.40
2018-11-21T14:07:15.857Z,21.17
2018-11-21T14:09:45.332Z,22.90
2018-11-21T14:12:13.872Z,23.30
2018-11-21T14:14:43.263Z,23.87
2018-11-21T14:17:13.757Z,25.50
2018-11-21T14:19:42.530Z,25.33
2018-11-21T14:22:11.277Z,25.03
2018-11-21T14:24:39.869Z,25.00
2018-11-21T14:27:09.089Z,26.60
2018-11-21T14:29:37.593Z,26.03
2018-11-21T14:32:06.415Z,24.83
2018-11-21T14:34:35.308Z,25.63
2018-11-21T14:37:05.650Z,26.27
2018-11-21T14:39:34.673Z,27.17
2018-11-21T14:42:08.580Z,28.03
2018-11-21T14:44:35.561Z,25.93
2018-11-21T14:47:05.497Z,27.23
2018-11-21T14:49:34.672Z,27.60
2018-11-21T14:52:03.896Z,29.07
2018-11-21T14:54:32.351Z,29.13
2018-11-21T14:57:00.837Z,28.97
2018-11-21T14:59:29.721Z,30.67
2018-11-21T15:01:58.999Z,29.97
2018-11-21T15:04:28.230Z,27.57
2018-11-21T15:06:56.674Z,29.90
2018-11-21T15:09:25.911Z,30.43
2018-11-21T15:11:54.897Z,30.93
2018-11-21T15:14:23.540Z,32.30
2018-11-21T15:16:52.024Z,34.13
2018-11-21T15:19:20.761Z,34.90
2018-11-21T15:21:50.112Z,32.37
2018-11-21T15:24:18.568Z,32.17
2018-11-21T15:26:47.569Z,33.13
2018-11-21T15:29:16.696Z,33.70
2018-11-21T15:31:45.292Z,36.97
2018-11-21T15:34:15.063Z,36.20
2018-11-21T15:36:44.250Z,35.53
2018-11-21T15:39:13.723Z,36.40
2018-11-21T15:41:42.240Z,37.23
2018-11-21T15:44:11.468Z,35.87
2018-11-21T15:46:45.721Z,34.83
2018-11-21T15:49:09.640Z,35.80
2018-11-21T15:51:39.270Z,35.87
2018-11-21T15:54:08.267Z,35.87
2018-11-21T15:56:38.073Z,37.40
2018-11-21T15:59:07.259Z,37.00
2018-11-21T16:01:35.778Z,37.30
2018-11-21T16:04:04.792Z,36.57
2018-11-21T16:06:33.425Z,36.50
2018-11-21T16:09:02.419Z,37.60
2018-11-21T16:11:31.918Z,38.30
2018-11-21T16:14:01.183Z,39.00
2018-11-21T16:16:30.155Z,34.93
2018-11-21T16:18:58.883Z,35.10
2018-11-21T16:21:27.701Z,36.60
2018-11-21T16:23:56.524Z,36.83
2018-11-21T16:26:25.918Z,36.97
2018-11-21T16:28:54.886Z,37.67
2018-11-21T16:31:23.427Z,36.17
2018-11-21T16:33:52.424Z,37.67
2018-11-21T16:36:27.143Z,36.80
2018-11-21T16:38:50.710Z,38.53
2018-11-21T16:41:19.670Z,38.20
2018-11-21T16:43:48.274Z,37.67
2018-11-21T16:46:20.042Z,37.50
2018-11-21T16:48:49.788Z,34.63
2018-11-21T16:51:19.924Z,37.83
2018-11-21T16:53:49.247Z,34.80
2018-11-21T16:56:17.947Z,35.87
2018-11-21T16:58:47.208Z,34.60
2018-11-21T17:01:15.768Z,36.07
2018-11-21T17:03:44.224Z,36.53
2018-11-21T17:06:13.178Z,33.80
2018-11-21T17:08:42.553Z,35.27
2018-11-21T17:11:11.930Z,35.03
2018-11-21T17:13:41.414Z,35.23
2018-11-21T17:16:10.459Z,35.47
2018-11-21T17:18:39.318Z,35.63
2018-11-21T17:21:08.405Z,37.10
2018-11-21T17:23:37.249Z,36.20
2018-11-21T17:26:06.500Z,35.43
2018-11-21T17:28:35.146Z,35.70
2018-11-21T17:31:04.128Z,34.87
2018-11-21T17:33:33.565Z,32.60
2018-11-21T17:36:02.452Z,33.40
2018-11-21T17:38:33.624Z,31.83
2018-11-21T17:41:00.592Z,33.23
2018-11-21T17:43:29.110Z,32.80
2018-11-21T17:46:03.968Z,32.67
2018-11-21T17:48:27.423Z,31.57
2018-11-21T17:50:56.051Z,30.80
2018-11-21T17:53:24.974Z,32.90
2018-11-21T17:55:54.319Z,32.20
2018-11-21T17:58:23.259Z,31.17
2018-11-21T18:00:51.960Z,33.03
2018-11-21T18:03:21.216Z,30.93
2018-11-21T18:05:50.055Z,31.77
2018-11-21T18:08:19.048Z,30.57
2018-11-21T18:10:47.705Z,31.17
2018-11-21T18:13:16.288Z,31.90
2018-11-21T18:15:45.689Z,30.63
2018-11-21T18:18:14.861Z,30.47
2018-11-21T18:20:43.524Z,30.97
2018-11-21T18:23:12.787Z,31.10
2018-11-21T18:25:43.465Z,34.33
2018-11-21T18:28:12.045Z,33.80
2018-11-21T18:30:40.683Z,30.53
2018-11-21T18:33:09.560Z,28.50
2018-11-21T18:35:38.220Z,29.30
2018-11-21T18:38:07.432Z,28.33
2018-11-21T18:40:36.524Z,31.40
2018-11-21T18:43:05.157Z,29.80
2018-11-21T18:45:38.932Z,30.03
2018-11-21T18:48:09.749Z,29.97
2018-11-21T18:50:38.826Z,29.70
2018-11-21T18:53:08.527Z,30.47
2018-11-21T18:55:43.406Z,31.20
2018-11-21T18:58:38.991Z,29.10
2018-11-21T19:01:08.453Z,29.03
2018-11-21T19:03:38.371Z,30.87
2018-11-21T19:06:07.796Z,31.03
2018-11-21T19:08:36.565Z,30.83
2018-11-21T19:11:05.464Z,32.17
2018-11-21T19:13:34.412Z,32.73
2018-11-21T19:16:04.303Z,30.13
2018-11-21T19:18:33.336Z,30.17
2018-11-21T19:21:01.950Z,33.23
2018-11-21T19:23:30.991Z,30.37
2018-11-21T19:25:59.852Z,32.37
2018-11-21T19:28:29.491Z,32.20
2018-11-21T19:30:58.427Z,33.63
2018-11-21T19:33:27.432Z,31.63
2018-11-21T19:35:56.168Z,30.23
2018-11-21T19:38:25.733Z,33.03
2018-11-21T19:40:54.843Z,31.73
2018-11-21T19:43:24.177Z,30.13
2018-11-21T19:45:53.351Z,33.23
2018-11-21T19:48:22.698Z,33.33
2018-11-21T19:50:51.499Z,32.20
2018-11-21T19:53:22.054Z,30.30
2018-11-21T19:55:50.842Z,28.37
2018-11-21T19:58:20.018Z,28.73
2018-11-21T20:00:49.629Z,28.90
2018-11-21T20:03:18.295Z,27.53
2018-11-21T20:05:47.772Z,29.20
2018-11-21T20:08:17.383Z,29.77
2018-11-21T20:10:46.518Z,29.07
2018-11-21T20:13:15.750Z,26.43
2018-11-21T20:15:44.525Z,26.57
2018-11-21T20:18:13.334Z,28.87
2018-11-21T20:20:42.241Z,28.00
2018-11-21T20:23:11.384Z,28.00
2018-11-21T20:25:40.275Z,26.30
2018-11-21T20:28:10.273Z,27.70
2018-11-21T20:30:40.179Z,28.40
2018-11-21T20:33:09.206Z,26.50
2018-11-21T20:35:38.331Z,28.00
2018-11-21T20:38:08.743Z,29.13
2018-11-21T20:40:38.172Z,28.00
2018-11-21T20:43:07.093Z,28.90
2018-11-21T20:45:35.927Z,27.70
2018-11-21T20:48:04.752Z,28.37
2018-11-21T20:50:34.073Z,28.20
2018-11-21T20:53:03.122Z,28.00
2018-11-21T20:55:33.059Z,25.23
2018-11-21T20:58:01.910Z,28.10
2018-11-21T21:00:33.466Z,29.27
2018-11-21T21:03:02.424Z,28.13
2018-11-21T21:05:31.223Z,28.73
2018-11-21T21:07:59.995Z,31.90
2018-11-21T21:10:30.726Z,27.73
2018-11-21T21:12:59.085Z,29.27
2018-11-21T21:15:27.543Z,28.10
2018-11-21T21:17:57.003Z,27.40
2018-11-21T21:20:27.481Z,29.87
2018-11-21T21:22:58.628Z,26.77
2018-11-21T21:25:29.135Z,25.03
2018-11-21T21:27:58.204Z,25.17
2018-11-21T21:30:29.360Z,24.37
2018-11-21T21:32:58.112Z,23.90
2018-11-21T21:35:27.988Z,23.40
2018-11-21T21:37:56.963Z,24.13
2018-11-21T21:40:28.229Z,22.63
2018-11-21T21:42:57.051Z,22.23
2018-11-21T21:45:27.714Z,20.20
2018-11-21T21:47:56.596Z,20.20
2018-11-21T21:50:27.041Z,21.83
2018-11-21T21:52:55.640Z,20.70
2018-11-21T21:55:26.179Z,22.13
2018-11-21T21:57:55.827Z,20.83
2018-11-21T22:00:26.938Z,22.53
2018-11-21T22:02:57.192Z,22.43
2018-11-21T22:05:26.767Z,20.73
2018-11-21T22:07:55.642Z,21.67
2018-11-21T22:10:24.461Z,21.03
2018-11-21T22:12:53.785Z,22.03
2018-11-21T22:15:26.846Z,22.10
2018-11-21T22:17:57.725Z,20.57
2018-11-21T22:20:26.612Z,20.93
2018-11-21T22:22:56.454Z,20.63
2018-11-21T22:25:26.116Z,21.40
2018-11-21T22:27:55.289Z,22.73
2018-11-21T22:30:24.917Z,22.60
2018-11-21T22:32:54.340Z,21.57
2018-11-21T22:35:25.174Z,23.30
2018-11-21T22:37:53.896Z,23.10
2018-11-21T22:40:22.970Z,23.30
2018-11-21T22:42:51.428Z,25.30
2018-11-21T22:45:21.247Z,24.03
2018-11-21T22:47:50.041Z,25.00
2018-11-21T22:50:19.893Z,24.27
2018-11-21T22:52:49.572Z,25.47
2018-11-21T22:55:18.480Z,25.53
2018-11-21T22:57:48.722Z,25.77
2018-11-21T23:00:39.244Z,26.43
2018-11-21T23:03:08.694Z,26.33
2018-11-21T23:05:37.782Z,27.87
2018-11-21T23:08:06.707Z,27.10
2018-11-21T23:10:35.287Z,26.03
2018-11-21T23:13:04.770Z,28.07
2018-11-21T23:15:33.580Z,27.00
2018-11-21T23:18:02.407Z,26.77
2018-11-21T23:20:31.843Z,25.67
2018-11-21T23:23:00.678Z,26.50
2018-11-21T23:25:29.965Z,28.23
2018-11-21T23:27:58.868Z,28.40
2018-11-21T23:30:27.741Z,28.77
2018-11-21T23:32:57.110Z,28.30
2018-11-21T23:35:25.682Z,30.43
2018-11-21T23:37:55.086Z,29.87
2018-11-21T23:40:23.685Z,27.80
2018-11-21T23:42:52.520Z,27.47
2018-11-21T23:45:21.399Z,28.13
2018-11-21T23:47:49.954Z,27.53
2018-11-21T23:50:19.165Z,28.73
2018-11-21T23:52:47.619Z,28.90
2018-11-21T23:55:18.480Z,27.03
2018-11-21T23:57:47.304Z,27.03
